Bucks Lake, California
Current Conditions -  °F | °C
As of 7:52 PM on Friday 24 Oct 2014 (Local Time) from KBLU Reporting Station
Clear Clear  
Wind Chill: 56°   Ceiling: Unl
Heat Index: 56°   Visibility: 10mi
Dew Point: 35°   Wind: 8mph
Humidity: 45%   Direction: 150°SSE
Pressure: 30.06"   Gusts: NA
Location:  39.939°N, 120.918°W
Report Text: KBLU 250252Z AUTO 15007KT 10SM CLR 13/02 A3006 RMK AO2 SLP123 T01330017 55002
Loading
Personal Weather Stations






























Interactive Weather Map
Tropical Storm Tracking
New forecast layout! Learn more

10-Day Weather Forecast

Advertisements
Track Severe Weather on mobile